sensor_id;sensor_type;location;lat;lon;timestamp;P1;durP1;ratioP1;P2;durP2;ratioP2
27566;SDS011;15006;48.584;9.186;2023-05-10T00:01:19;1.45;;;1.02;;
27566;SDS011;15006;48.584;9.186;2023-05-10T00:03:45;1.15;;;1.08;;
27566;SDS011;15006;48.584;9.186;2023-05-10T00:06:11;1.10;;;1.10;;
27566;SDS011;15006;48.584;9.186;2023-05-10T00:08:38;2.15;;;1.10;;
27566;SDS011;15006;48.584;9.186;2023-05-10T00:11:05;2.35;;;1.20;;
27566;SDS011;15006;48.584;9.186;2023-05-10T00:13:31;1.20;;;1.20;;
27566;SDS011;15006;48.584;9.186;2023-05-10T00:15:57;1.30;;;1.30;;
27566;SDS011;15006;48.584;9.186;2023-05-10T00:18:24;1.02;;;1.02;;
27566;SDS011;15006;48.584;9.186;2023-05-10T00:20:52;1.20;;;1.20;;
27566;SDS011;15006;48.584;9.186;2023-05-10T00:23:18;1.30;;;1.30;;
27566;SDS011;15006;48.584;9.186;2023-05-10T00:25:44;2.70;;;0.77;;
27566;SDS011;15006;48.584;9.186;2023-05-10T00:28:11;1.17;;;1.05;;
27566;SDS011;15006;48.584;9.186;2023-05-10T00:30:37;3.40;;;1.00;;
27566;SDS011;15006;48.584;9.186;2023-05-10T00:33:03;0.90;;;0.80;;
27566;SDS011;15006;48.584;9.186;2023-05-10T00:35:29;1.02;;;0.85;;
27566;SDS011;15006;48.584;9.186;2023-05-10T00:37:55;1.58;;;0.73;;
27566;SDS011;15006;48.584;9.186;2023-05-10T00:40:21;4.97;;;0.60;;
27566;SDS011;15006;48.584;9.186;2023-05-10T00:42:49;0.55;;;0.55;;
27566;SDS011;15006;48.584;9.186;2023-05-10T00:45:15;0.50;;;0.50;;
27566;SDS011;15006;48.584;9.186;2023-05-10T00:47:41;0.65;;;0.50;;
27566;SDS011;15006;48.584;9.186;2023-05-10T00:50:07;0.50;;;0.50;;
27566;SDS011;15006;48.584;9.186;2023-05-10T00:52:34;0.43;;;0.38;;
27566;SDS011;15006;48.584;9.186;2023-05-10T00:55:00;0.65;;;0.38;;
27566;SDS011;15006;48.584;9.186;2023-05-10T00:57:28;0.40;;;0.40;;
27566;SDS011;15006;48.584;9.186;2023-05-10T00:59:54;0.50;;;0.30;;
27566;SDS011;15006;48.584;9.186;2023-05-10T01:02:20;0.57;;;0.35;;
27566;SDS011;15006;48.584;9.186;2023-05-10T01:04:46;0.50;;;0.50;;
27566;SDS011;15006;48.584;9.186;2023-05-10T01:07:12;1.05;;;0.50;;
27566;SDS011;15006;48.584;9.186;2023-05-10T01:09:38;0.40;;;0.40;;
27566;SDS011;15006;48.584;9.186;2023-05-10T01:12:04;0.40;;;0.40;;
27566;SDS011;15006;48.584;9.186;2023-05-10T01:14:32;0.57;;;0.40;;
27566;SDS011;15006;48.584;9.186;2023-05-10T01:17:01;3.10;;;0.30;;
27566;SDS011;15006;48.584;9.186;2023-05-10T01:19:29;0.40;;;0.40;;
27566;SDS011;15006;48.584;9.186;2023-05-10T01:22:02;0.30;;;0.30;;
27566;SDS011;15006;48.584;9.186;2023-05-10T01:31:02;0.55;;;0.40;;
27566;SDS011;15006;48.584;9.186;2023-05-10T01:36:26;1.98;;;0.73;;
27566;SDS011;15006;48.584;9.186;2023-05-10T01:39:09;0.30;;;0.30;;
27566;SDS011;15006;48.584;9.186;2023-05-10T01:44:18;3.03;;;0.47;;
27566;SDS011;15006;48.584;9.186;2023-05-10T01:47:04;0.20;;;0.20;;
27566;SDS011;15006;48.584;9.186;2023-05-10T01:49:45;0.30;;;0.20;;
27566;SDS011;15006;48.584;9.186;2023-05-10T01:52:18;0.82;;;0.30;;
27566;SDS011;15006;48.584;9.186;2023-05-10T01:55:01;0.60;;;0.30;;
27566;SDS011;15006;48.584;9.186;2023-05-10T01:57:35;1.95;;;0.30;;
27566;SDS011;15006;48.584;9.186;2023-05-10T02:00:04;3.63;;;0.40;;
27566;SDS011;15006;48.584;9.186;2023-05-10T02:02:39;3.65;;;0.30;;
27566;SDS011;15006;48.584;9.186;2023-05-10T02:05:07;0.73;;;0.30;;
27566;SDS011;15006;48.584;9.186;2023-05-10T02:07:37;0.30;;;0.30;;
27566;SDS011;15006;48.584;9.186;2023-05-10T02:10:07;1.40;;;0.20;;
27566;SDS011;15006;48.584;9.186;2023-05-10T02:12:39;0.65;;;0.20;;
27566;SDS011;15006;48.584;9.186;2023-05-10T02:15:09;4.97;;;0.50;;
27566;SDS011;15006;48.584;9.186;2023-05-10T02:17:38;0.82;;;0.25;;
27566;SDS011;15006;48.584;9.186;2023-05-10T02:20:05;0.50;;;0.20;;
27566;SDS011;15006;48.584;9.186;2023-05-10T02:22:33;0.20;;;0.20;;
27566;SDS011;15006;48.584;9.186;2023-05-10T02:25:01;0.35;;;0.22;;
27566;SDS011;15006;48.584;9.186;2023-05-10T02:27:29;0.93;;;0.20;;
27566;SDS011;15006;48.584;9.186;2023-05-10T02:29:56;0.20;;;0.20;;
27566;SDS011;15006;48.584;9.186;2023-05-10T02:32:24;1.00;;;0.40;;
27566;SDS011;15006;48.584;9.186;2023-05-10T02:34:52;0.63;;;0.30;;
27566;SDS011;15006;48.584;9.186;2023-05-10T02:37:18;3.60;;;0.20;;
27566;SDS011;15006;48.584;9.186;2023-05-10T02:39:50;0.28;;;0.22;;
27566;SDS011;15006;48.584;9.186;2023-05-10T02:42:22;0.68;;;0.20;;
27566;SDS011;15006;48.584;9.186;2023-05-10T02:44:52;0.40;;;0.40;;
27566;SDS011;15006;48.584;9.186;2023-05-10T02:47:25;4.03;;;0.47;;
27566;SDS011;15006;48.584;9.186;2023-05-10T02:49:51;1.58;;;0.30;;
27566;SDS011;15006;48.584;9.186;2023-05-10T02:52:19;1.02;;;0.20;;
27566;SDS011;15006;48.584;9.186;2023-05-10T02:54:50;0.47;;;0.20;;
27566;SDS011;15006;48.584;9.186;2023-05-10T02:57:22;1.73;;;0.63;;
27566;SDS011;15006;48.584;9.186;2023-05-10T02:59:54;1.67;;;0.30;;
27566;SDS011;15006;48.584;9.186;2023-05-10T03:02:20;1.88;;;0.30;;
27566;SDS011;15006;48.584;9.186;2023-05-10T03:04:46;0.30;;;0.30;;
27566;SDS011;15006;48.584;9.186;2023-05-10T03:07:12;0.30;;;0.30;;
27566;SDS011;15006;48.584;9.186;2023-05-10T03:09:38;0.38;;;0.25;;
27566;SDS011;15006;48.584;9.186;2023-05-10T03:14:45;0.30;;;0.30;;
27566;SDS011;15006;48.584;9.186;2023-05-10T03:20:20;0.30;;;0.30;;
27566;SDS011;15006;48.584;9.186;2023-05-10T03:22:53;0.73;;;0.30;;
27566;SDS011;15006;48.584;9.186;2023-05-10T03:25:22;0.20;;;0.20;;
27566;SDS011;15006;48.584;9.186;2023-05-10T03:27:49;0.30;;;0.30;;
27566;SDS011;15006;48.584;9.186;2023-05-10T03:30:15;0.30;;;0.30;;
27566;SDS011;15006;48.584;9.186;2023-05-10T03:32:43;0.90;;;0.68;;
27566;SDS011;15006;48.584;9.186;2023-05-10T03:35:09;0.45;;;0.38;;
27566;SDS011;15006;48.584;9.186;2023-05-10T03:37:37;0.40;;;0.40;;
27566;SDS011;15006;48.584;9.186;2023-05-10T03:40:03;0.93;;;0.57;;
27566;SDS011;15006;48.584;9.186;2023-05-10T03:42:30;1.17;;;0.60;;
27566;SDS011;15006;48.584;9.186;2023-05-10T03:44:56;0.73;;;0.50;;
27566;SDS011;15006;48.584;9.186;2023-05-10T03:47:22;0.68;;;0.68;;
27566;SDS011;15006;48.584;9.186;2023-05-10T03:49:49;2.13;;;0.45;;
27566;SDS011;15006;48.584;9.186;2023-05-10T03:52:15;1.55;;;0.50;;
27566;SDS011;15006;48.584;9.186;2023-05-10T03:54:41;0.40;;;0.40;;
27566;SDS011;15006;48.584;9.186;2023-05-10T03:57:07;0.57;;;0.50;;
27566;SDS011;15006;48.584;9.186;2023-05-10T03:59:34;2.05;;;0.60;;
27566;SDS011;15006;48.584;9.186;2023-05-10T04:02:01;0.40;;;0.40;;
27566;SDS011;15006;48.584;9.186;2023-05-10T04:04:27;2.30;;;0.60;;
27566;SDS011;15006;48.584;9.186;2023-05-10T04:06:53;0.43;;;0.43;;
27566;SDS011;15006;48.584;9.186;2023-05-10T04:09:20;1.00;;;0.60;;
27566;SDS011;15006;48.584;9.186;2023-05-10T04:11:46;0.50;;;0.50;;
27566;SDS011;15006;48.584;9.186;2023-05-10T04:14:12;1.35;;;0.68;;
27566;SDS011;15006;48.584;9.186;2023-05-10T04:16:39;0.50;;;0.50;;
27566;SDS011;15006;48.584;9.186;2023-05-10T04:19:06;0.50;;;0.50;;
27566;SDS011;15006;48.584;9.186;2023-05-10T04:21:32;0.60;;;0.60;;
27566;SDS011;15006;48.584;9.186;2023-05-10T04:23:58;0.75;;;0.70;;
27566;SDS011;15006;48.584;9.186;2023-05-10T04:26:24;0.60;;;0.60;;
27566;SDS011;15006;48.584;9.186;2023-05-10T04:28:50;1.13;;;0.68;;
27566;SDS011;15006;48.584;9.186;2023-05-10T04:31:16;0.55;;;0.55;;
27566;SDS011;15006;48.584;9.186;2023-05-10T04:33:43;0.50;;;0.50;;
27566;SDS011;15006;48.584;9.186;2023-05-10T04:36:09;1.35;;;0.50;;
27566;SDS011;15006;48.584;9.186;2023-05-10T04:38:35;0.88;;;0.88;;
27566;SDS011;15006;48.584;9.186;2023-05-10T04:41:08;0.73;;;0.73;;
27566;SDS011;15006;48.584;9.186;2023-05-10T04:43:36;1.30;;;0.90;;
27566;SDS011;15006;48.584;9.186;2023-05-10T04:46:03;2.70;;;1.25;;
27566;SDS011;15006;48.584;9.186;2023-05-10T04:48:30;1.13;;;0.80;;
27566;SDS011;15006;48.584;9.186;2023-05-10T04:50:56;0.73;;;0.73;;
27566;SDS011;15006;48.584;9.186;2023-05-10T04:53:22;0.95;;;0.95;;
27566;SDS011;15006;48.584;9.186;2023-05-10T04:55:48;1.75;;;1.58;;
27566;SDS011;15006;48.584;9.186;2023-05-10T04:58:14;1.85;;;0.98;;
27566;SDS011;15006;48.584;9.186;2023-05-10T05:00:40;1.20;;;1.10;;
27566;SDS011;15006;48.584;9.186;2023-05-10T05:03:07;2.45;;;1.30;;
27566;SDS011;15006;48.584;9.186;2023-05-10T05:05:33;1.13;;;1.02;;
27566;SDS011;15006;48.584;9.186;2023-05-10T05:08:00;3.75;;;1.20;;
27566;SDS011;15006;48.584;9.186;2023-05-10T05:10:27;1.65;;;1.48;;
27566;SDS011;15006;48.584;9.186;2023-05-10T05:12:53;1.90;;;1.30;;
27566;SDS011;15006;48.584;9.186;2023-05-10T05:15:19;1.45;;;1.30;;
27566;SDS011;15006;48.584;9.186;2023-05-10T05:17:45;1.30;;;1.20;;
27566;SDS011;15006;48.584;9.186;2023-05-10T05:20:11;1.50;;;1.10;;
27566;SDS011;15006;48.584;9.186;2023-05-10T05:22:38;4.43;;;1.20;;
27566;SDS011;15006;48.584;9.186;2023-05-10T05:25:04;1.30;;;1.20;;
27566;SDS011;15006;48.584;9.186;2023-05-10T05:27:31;0.95;;;0.95;;
27566;SDS011;15006;48.584;9.186;2023-05-10T05:29:57;1.40;;;1.00;;
27566;SDS011;15006;48.584;9.186;2023-05-10T05:32:24;1.30;;;1.20;;
27566;SDS011;15006;48.584;9.186;2023-05-10T05:34:50;1.95;;;1.27;;
27566;SDS011;15006;48.584;9.186;2023-05-10T05:37:18;1.27;;;1.25;;
27566;SDS011;15006;48.584;9.186;2023-05-10T05:39:46;1.77;;;1.40;;
27566;SDS011;15006;48.584;9.186;2023-05-10T05:42:12;1.45;;;1.15;;
27566;SDS011;15006;48.584;9.186;2023-05-10T05:44:38;1.77;;;1.38;;
27566;SDS011;15006;48.584;9.186;2023-05-10T05:47:05;2.83;;;1.48;;
27566;SDS011;15006;48.584;9.186;2023-05-10T05:49:32;1.20;;;1.00;;
27566;SDS011;15006;48.584;9.186;2023-05-10T05:51:58;1.20;;;1.20;;
27566;SDS011;15006;48.584;9.186;2023-05-10T05:54:28;1.52;;;1.35;;
27566;SDS011;15006;48.584;9.186;2023-05-10T05:56:56;1.33;;;1.20;;
27566;SDS011;15006;48.584;9.186;2023-05-10T05:59:23;1.17;;;1.17;;
27566;SDS011;15006;48.584;9.186;2023-05-10T06:01:49;0.98;;;0.98;;
27566;SDS011;15006;48.584;9.186;2023-05-10T06:04:16;1.27;;;1.20;;
27566;SDS011;15006;48.584;9.186;2023-05-10T06:06:42;1.20;;;1.10;;
27566;SDS011;15006;48.584;9.186;2023-05-10T06:09:09;1.30;;;1.20;;
27566;SDS011;15006;48.584;9.186;2023-05-10T06:11:36;1.00;;;1.00;;
27566;SDS011;15006;48.584;9.186;2023-05-10T06:14:02;1.00;;;1.00;;
27566;SDS011;15006;48.584;9.186;2023-05-10T06:16:30;1.00;;;1.00;;
27566;SDS011;15006;48.584;9.186;2023-05-10T06:18:56;3.63;;;1.10;;
27566;SDS011;15006;48.584;9.186;2023-05-10T06:21:22;0.90;;;0.90;;
27566;SDS011;15006;48.584;9.186;2023-05-10T06:23:48;2.10;;;1.20;;
27566;SDS011;15006;48.584;9.186;2023-05-10T06:26:14;1.27;;;1.17;;
27566;SDS011;15006;48.584;9.186;2023-05-10T06:28:40;1.17;;;1.17;;
27566;SDS011;15006;48.584;9.186;2023-05-10T06:31:06;1.20;;;1.20;;
27566;SDS011;15006;48.584;9.186;2023-05-10T06:33:33;1.08;;;1.08;;
27566;SDS011;15006;48.584;9.186;2023-05-10T06:35:59;1.00;;;1.00;;
27566;SDS011;15006;48.584;9.186;2023-05-10T06:38:26;2.90;;;1.30;;
27566;SDS011;15006;48.584;9.186;2023-05-10T06:40:52;4.53;;;1.40;;
27566;SDS011;15006;48.584;9.186;2023-05-10T06:43:18;6.93;;;1.30;;
27566;SDS011;15006;48.584;9.186;2023-05-10T06:45:44;1.40;;;1.05;;
27566;SDS011;15006;48.584;9.186;2023-05-10T06:48:10;1.10;;;1.10;;
27566;SDS011;15006;48.584;9.186;2023-05-10T06:50:36;1.15;;;1.10;;
27566;SDS011;15006;48.584;9.186;2023-05-10T06:53:02;1.23;;;1.00;;
27566;SDS011;15006;48.584;9.186;2023-05-10T06:55:29;2.05;;;1.02;;
27566;SDS011;15006;48.584;9.186;2023-05-10T06:57:55;0.85;;;0.85;;
27566;SDS011;15006;48.584;9.186;2023-05-10T07:00:21;1.00;;;1.00;;
27566;SDS011;15006;48.584;9.186;2023-05-10T07:02:47;1.45;;;1.20;;
27566;SDS011;15006;48.584;9.186;2023-05-10T07:05:13;1.00;;;1.00;;
27566;SDS011;15006;48.584;9.186;2023-05-10T07:07:40;0.82;;;0.82;;
27566;SDS011;15006;48.584;9.186;2023-05-10T07:10:07;1.10;;;1.00;;
27566;SDS011;15006;48.584;9.186;2023-05-10T07:12:33;1.10;;;1.00;;
27566;SDS011;15006;48.584;9.186;2023-05-10T07:15:00;6.80;;;0.80;;
27566;SDS011;15006;48.584;9.186;2023-05-10T07:17:26;0.80;;;0.80;;
27566;SDS011;15006;48.584;9.186;2023-05-10T07:19:52;0.90;;;0.90;;
27566;SDS011;15006;48.584;9.186;2023-05-10T07:22:18;0.70;;;0.70;;
27566;SDS011;15006;48.584;9.186;2023-05-10T07:24:44;0.93;;;0.93;;
27566;SDS011;15006;48.584;9.186;2023-05-10T07:27:11;0.60;;;0.60;;
27566;SDS011;15006;48.584;9.186;2023-05-10T07:29:38;0.95;;;0.75;;
27566;SDS011;15006;48.584;9.186;2023-05-10T07:32:04;0.82;;;0.82;;
27566;SDS011;15006;48.584;9.186;2023-05-10T07:34:30;0.73;;;0.70;;
27566;SDS011;15006;48.584;9.186;2023-05-10T07:36:58;0.68;;;0.68;;
27566;SDS011;15006;48.584;9.186;2023-05-10T07:39:25;0.77;;;0.77;;
27566;SDS011;15006;48.584;9.186;2023-05-10T07:41:52;3.67;;;0.90;;
27566;SDS011;15006;48.584;9.186;2023-05-10T07:44:18;1.60;;;0.70;;
27566;SDS011;15006;48.584;9.186;2023-05-10T07:46:45;0.73;;;0.65;;
27566;SDS011;15006;48.584;9.186;2023-05-10T07:49:12;1.00;;;0.85;;
27566;SDS011;15006;48.584;9.186;2023-05-10T07:51:38;1.77;;;1.67;;
27566;SDS011;15006;48.584;9.186;2023-05-10T07:54:05;2.15;;;0.85;;
27566;SDS011;15006;48.584;9.186;2023-05-10T07:56:31;2.15;;;1.63;;
27566;SDS011;15006;48.584;9.186;2023-05-10T07:58:58;0.70;;;0.60;;
27566;SDS011;15006;48.584;9.186;2023-05-10T08:01:25;7.63;;;1.27;;
27566;SDS011;15006;48.584;9.186;2023-05-10T08:03:52;0.60;;;0.60;;
27566;SDS011;15006;48.584;9.186;2023-05-10T08:06:19;2.88;;;0.90;;
27566;SDS011;15006;48.584;9.186;2023-05-10T08:08:47;0.65;;;0.57;;
27566;SDS011;15006;48.584;9.186;2023-05-10T08:11:19;0.50;;;0.50;;
27566;SDS011;15006;48.584;9.186;2023-05-10T08:13:48;0.88;;;0.73;;
27566;SDS011;15006;48.584;9.186;2023-05-10T08:16:16;4.13;;;0.40;;
27566;SDS011;15006;48.584;9.186;2023-05-10T08:18:43;0.50;;;0.50;;
27566;SDS011;15006;48.584;9.186;2023-05-10T08:21:14;0.73;;;0.50;;
27566;SDS011;15006;48.584;9.186;2023-05-10T08:23:41;1.27;;;0.70;;
27566;SDS011;15006;48.584;9.186;2023-05-10T08:26:09;0.82;;;0.70;;
27566;SDS011;15006;48.584;9.186;2023-05-10T08:28:35;1.95;;;0.50;;
27566;SDS011;15006;48.584;9.186;2023-05-10T08:31:01;1.77;;;0.60;;
27566;SDS011;15006;48.584;9.186;2023-05-10T08:33:28;2.05;;;0.50;;
27566;SDS011;15006;48.584;9.186;2023-05-10T08:35:54;0.45;;;0.43;;
27566;SDS011;15006;48.584;9.186;2023-05-10T08:38:20;1.20;;;0.60;;
27566;SDS011;15006;48.584;9.186;2023-05-10T08:40:46;0.90;;;0.50;;
27566;SDS011;15006;48.584;9.186;2023-05-10T08:43:16;0.40;;;0.40;;
27566;SDS011;15006;48.584;9.186;2023-05-10T08:45:43;0.50;;;0.40;;
27566;SDS011;15006;48.584;9.186;2023-05-10T08:48:13;0.40;;;0.40;;
27566;SDS011;15006;48.584;9.186;2023-05-10T08:50:40;0.35;;;0.35;;
27566;SDS011;15006;48.584;9.186;2023-05-10T08:53:12;1.10;;;0.47;;
27566;SDS011;15006;48.584;9.186;2023-05-10T08:55:39;1.75;;;0.50;;
27566;SDS011;15006;48.584;9.186;2023-05-10T08:58:07;1.13;;;0.38;;
27566;SDS011;15006;48.584;9.186;2023-05-10T09:00:34;0.52;;;0.40;;
27566;SDS011;15006;48.584;9.186;2023-05-10T09:03:02;0.30;;;0.30;;
27566;SDS011;15006;48.584;9.186;2023-05-10T09:05:31;0.30;;;0.30;;
27566;SDS011;15006;48.584;9.186;2023-05-10T09:07:57;1.17;;;0.30;;
27566;SDS011;15006;48.584;9.186;2023-05-10T09:10:26;1.00;;;0.30;;
27566;SDS011;15006;48.584;9.186;2023-05-10T09:12:56;0.30;;;0.20;;
27566;SDS011;15006;48.584;9.186;2023-05-10T09:15:23;0.43;;;0.30;;
27566;SDS011;15006;48.584;9.186;2023-05-10T09:17:50;2.65;;;0.47;;
27566;SDS011;15006;48.584;9.186;2023-05-10T09:20:17;0.20;;;0.20;;
27566;SDS011;15006;48.584;9.186;2023-05-10T09:22:44;0.25;;;0.25;;
27566;SDS011;15006;48.584;9.186;2023-05-10T09:25:12;1.35;;;0.30;;
27566;SDS011;15006;48.584;9.186;2023-05-10T09:30:16;0.25;;;0.22;;
27566;SDS011;15006;48.584;9.186;2023-05-10T09:32:57;0.80;;;0.40;;
27566;SDS011;15006;48.584;9.186;2023-05-10T09:35:30;1.10;;;0.40;;
27566;SDS011;15006;48.584;9.186;2023-05-10T09:38:02;0.57;;;0.22;;
27566;SDS011;15006;48.584;9.186;2023-05-10T09:40:33;0.40;;;0.20;;
27566;SDS011;15006;48.584;9.186;2023-05-10T09:43:02;0.52;;;0.32;;
27566;SDS011;15006;48.584;9.186;2023-05-10T09:45:33;0.20;;;0.20;;
27566;SDS011;15006;48.584;9.186;2023-05-10T09:48:02;0.20;;;0.20;;
27566;SDS011;15006;48.584;9.186;2023-05-10T09:50:30;0.25;;;0.20;;
27566;SDS011;15006;48.584;9.186;2023-05-10T09:52:58;0.13;;;0.10;;
27566;SDS011;15006;48.584;9.186;2023-05-10T09:55:38;0.20;;;0.20;;
27566;SDS011;15006;48.584;9.186;2023-05-10T09:58:19;1.45;;;0.30;;
27566;SDS011;15006;48.584;9.186;2023-05-10T10:00:51;0.15;;;0.10;;
27566;SDS011;15006;48.584;9.186;2023-05-10T10:03:23;0.20;;;0.20;;
27566;SDS011;15006;48.584;9.186;2023-05-10T10:05:50;0.40;;;0.20;;
27566;SDS011;15006;48.584;9.186;2023-05-10T10:08:19;0.20;;;0.20;;
27566;SDS011;15006;48.584;9.186;2023-05-10T10:10:48;1.00;;;0.10;;
27566;SDS011;15006;48.584;9.186;2023-05-10T10:13:17;1.80;;;0.13;;
27566;SDS011;15006;48.584;9.186;2023-05-10T10:15:46;0.20;;;0.10;;
27566;SDS011;15006;48.584;9.186;2023-05-10T10:18:16;1.60;;;0.35;;
27566;SDS011;15006;48.584;9.186;2023-05-10T10:20:44;0.20;;;0.20;;
27566;SDS011;15006;48.584;9.186;2023-05-10T10:23:11;0.77;;;0.20;;
27566;SDS011;15006;48.584;9.186;2023-05-10T10:25:38;0.20;;;0.13;;
27566;SDS011;15006;48.584;9.186;2023-05-10T10:28:25;0.90;;;0.43;;
27566;SDS011;15006;48.584;9.186;2023-05-10T10:31:03;0.25;;;0.20;;
27566;SDS011;15006;48.584;9.186;2023-05-10T10:33:56;1.42;;;0.20;;
27566;SDS011;15006;48.584;9.186;2023-05-10T10:36:33;0.65;;;0.47;;
27566;SDS011;15006;48.584;9.186;2023-05-10T10:39:10;5.05;;;0.40;;
27566;SDS011;15006;48.584;9.186;2023-05-10T10:41:39;0.20;;;0.20;;
27566;SDS011;15006;48.584;9.186;2023-05-10T10:44:33;0.47;;;0.30;;
27566;SDS011;15006;48.584;9.186;2023-05-10T10:47:06;0.25;;;0.25;;
27566;SDS011;15006;48.584;9.186;2023-05-10T10:50:09;1.40;;;0.30;;
27566;SDS011;15006;48.584;9.186;2023-05-10T10:52:40;0.55;;;0.30;;
27566;SDS011;15006;48.584;9.186;2023-05-10T10:55:13;1.50;;;0.30;;
27566;SDS011;15006;48.584;9.186;2023-05-10T10:57:53;0.50;;;0.30;;
27566;SDS011;15006;48.584;9.186;2023-05-10T11:00:32;0.30;;;0.30;;
27566;SDS011;15006;48.584;9.186;2023-05-10T11:03:09;0.20;;;0.20;;
27566;SDS011;15006;48.584;9.186;2023-05-10T11:05:41;1.95;;;0.32;;
27566;SDS011;15006;48.584;9.186;2023-05-10T11:08:41;2.30;;;0.43;;
27566;SDS011;15006;48.584;9.186;2023-05-10T11:11:13;0.93;;;0.47;;
27566;SDS011;15006;48.584;9.186;2023-05-10T11:13:43;0.43;;;0.30;;
27566;SDS011;15006;48.584;9.186;2023-05-10T11:16:18;0.20;;;0.20;;
27566;SDS011;15006;48.584;9.186;2023-05-10T11:18:53;1.55;;;0.43;;
27566;SDS011;15006;48.584;9.186;2023-05-10T11:21:31;0.45;;;0.40;;
27566;SDS011;15006;48.584;9.186;2023-05-10T11:23:59;0.40;;;0.40;;
27566;SDS011;15006;48.584;9.186;2023-05-10T11:26:32;0.50;;;0.43;;
27566;SDS011;15006;48.584;9.186;2023-05-10T11:29:00;0.35;;;0.35;;
27566;SDS011;15006;48.584;9.186;2023-05-10T11:31:28;1.40;;;0.57;;
27566;SDS011;15006;48.584;9.186;2023-05-10T11:33:57;0.52;;;0.40;;
27566;SDS011;15006;48.584;9.186;2023-05-10T11:36:28;16.67;;;1.42;;
27566;SDS011;15006;48.584;9.186;2023-05-10T11:38:58;0.43;;;0.43;;
27566;SDS011;15006;48.584;9.186;2023-05-10T11:41:28;0.40;;;0.40;;
27566;SDS011;15006;48.584;9.186;2023-05-10T11:43:56;0.70;;;0.68;;
27566;SDS011;15006;48.584;9.186;2023-05-10T11:46:23;0.77;;;0.50;;
27566;SDS011;15006;48.584;9.186;2023-05-10T11:48:59;7.80;;;0.75;;
27566;SDS011;15006;48.584;9.186;2023-05-10T11:51:29;5.32;;;0.43;;
27566;SDS011;15006;48.584;9.186;2023-05-10T11:53:59;0.57;;;0.38;;
27566;SDS011;15006;48.584;9.186;2023-05-10T11:56:26;1.92;;;0.50;;
27566;SDS011;15006;48.584;9.186;2023-05-10T11:58:53;0.65;;;0.40;;
27566;SDS011;15006;48.584;9.186;2023-05-10T12:01:21;0.50;;;0.47;;
27566;SDS011;15006;48.584;9.186;2023-05-10T12:03:51;2.38;;;0.60;;
27566;SDS011;15006;48.584;9.186;2023-05-10T12:06:20;0.70;;;0.50;;
27566;SDS011;15006;48.584;9.186;2023-05-10T12:08:47;0.85;;;0.50;;
27566;SDS011;15006;48.584;9.186;2023-05-10T12:11:24;4.28;;;1.13;;
27566;SDS011;15006;48.584;9.186;2023-05-10T12:13:51;0.43;;;0.40;;
27566;SDS011;15006;48.584;9.186;2023-05-10T12:16:19;0.52;;;0.40;;
27566;SDS011;15006;48.584;9.186;2023-05-10T12:18:48;0.83;;;0.47;;
27566;SDS011;15006;48.584;9.186;2023-05-10T12:23:50;0.40;;;0.40;;
27566;SDS011;15006;48.584;9.186;2023-05-10T12:26:18;0.60;;;0.60;;
27566;SDS011;15006;48.584;9.186;2023-05-10T12:28:48;2.38;;;0.50;;
27566;SDS011;15006;48.584;9.186;2023-05-10T12:31:14;2.17;;;0.50;;
27566;SDS011;15006;48.584;9.186;2023-05-10T12:33:41;0.52;;;0.52;;
27566;SDS011;15006;48.584;9.186;2023-05-10T12:36:09;0.70;;;0.70;;
27566;SDS011;15006;48.584;9.186;2023-05-10T12:38:39;3.75;;;0.60;;
27566;SDS011;15006;48.584;9.186;2023-05-10T12:41:09;1.17;;;0.60;;
27566;SDS011;15006;48.584;9.186;2023-05-10T12:43:37;0.90;;;0.50;;
27566;SDS011;15006;48.584;9.186;2023-05-10T12:46:08;0.80;;;0.57;;
27566;SDS011;15006;48.584;9.186;2023-05-10T12:48:43;0.43;;;0.40;;
27566;SDS011;15006;48.584;9.186;2023-05-10T12:51:11;0.95;;;0.68;;
27566;SDS011;15006;48.584;9.186;2023-05-10T12:53:40;1.48;;;0.77;;
27566;SDS011;15006;48.584;9.186;2023-05-10T12:56:06;0.43;;;0.43;;
27566;SDS011;15006;48.584;9.186;2023-05-10T12:58:32;0.50;;;0.50;;
27566;SDS011;15006;48.584;9.186;2023-05-10T13:00:59;1.40;;;0.50;;
27566;SDS011;15006;48.584;9.186;2023-05-10T13:03:25;0.80;;;0.50;;
27566;SDS011;15006;48.584;9.186;2023-05-10T13:05:51;1.23;;;0.43;;
27566;SDS011;15006;48.584;9.186;2023-05-10T13:08:18;2.28;;;0.40;;
27566;SDS011;15006;48.584;9.186;2023-05-10T13:10:44;0.35;;;0.35;;
27566;SDS011;15006;48.584;9.186;2023-05-10T13:13:10;1.08;;;0.30;;
27566;SDS011;15006;48.584;9.186;2023-05-10T13:15:36;0.45;;;0.30;;
27566;SDS011;15006;48.584;9.186;2023-05-10T13:18:02;0.43;;;0.40;;
27566;SDS011;15006;48.584;9.186;2023-05-10T13:20:29;0.50;;;0.35;;
27566;SDS011;15006;48.584;9.186;2023-05-10T13:22:55;0.43;;;0.38;;
27566;SDS011;15006;48.584;9.186;2023-05-10T13:25:21;1.13;;;0.60;;
27566;SDS011;15006;48.584;9.186;2023-05-10T13:27:47;0.40;;;0.40;;
27566;SDS011;15006;48.584;9.186;2023-05-10T13:30:13;0.75;;;0.43;;
27566;SDS011;15006;48.584;9.186;2023-05-10T13:32:39;1.25;;;0.60;;
27566;SDS011;15006;48.584;9.186;2023-05-10T13:35:05;0.50;;;0.40;;
27566;SDS011;15006;48.584;9.186;2023-05-10T13:37:32;0.90;;;0.50;;
27566;SDS011;15006;48.584;9.186;2023-05-10T13:40:01;0.82;;;0.40;;
27566;SDS011;15006;48.584;9.186;2023-05-10T13:42:28;0.68;;;0.40;;
27566;SDS011;15006;48.584;9.186;2023-05-10T13:44:53;0.43;;;0.43;;
27566;SDS011;15006;48.584;9.186;2023-05-10T13:47:19;0.75;;;0.43;;
27566;SDS011;15006;48.584;9.186;2023-05-10T13:49:46;1.77;;;0.50;;
27566;SDS011;15006;48.584;9.186;2023-05-10T13:52:13;0.90;;;0.50;;
27566;SDS011;15006;48.584;9.186;2023-05-10T13:54:39;0.60;;;0.40;;
27566;SDS011;15006;48.584;9.186;2023-05-10T13:57:05;0.50;;;0.50;;
27566;SDS011;15006;48.584;9.186;2023-05-10T13:59:31;0.90;;;0.50;;
27566;SDS011;15006;48.584;9.186;2023-05-10T14:01:58;2.33;;;0.52;;
27566;SDS011;15006;48.584;9.186;2023-05-10T14:04:24;1.75;;;0.40;;
27566;SDS011;15006;48.584;9.186;2023-05-10T14:06:51;1.02;;;0.55;;
27566;SDS011;15006;48.584;9.186;2023-05-10T14:09:18;0.82;;;0.40;;
27566;SDS011;15006;48.584;9.186;2023-05-10T14:11:44;0.52;;;0.50;;
27566;SDS011;15006;48.584;9.186;2023-05-10T14:14:11;2.53;;;0.70;;
27566;SDS011;15006;48.584;9.186;2023-05-10T14:16:41;0.75;;;0.40;;
27566;SDS011;15006;48.584;9.186;2023-05-10T14:19:08;1.23;;;0.30;;
27566;SDS011;15006;48.584;9.186;2023-05-10T14:21:35;1.10;;;0.40;;
27566;SDS011;15006;48.584;9.186;2023-05-10T14:24:01;1.33;;;0.57;;
27566;SDS011;15006;48.584;9.186;2023-05-10T14:26:27;2.08;;;0.63;;
27566;SDS011;15006;48.584;9.186;2023-05-10T14:28:53;1.52;;;0.60;;
27566;SDS011;15006;48.584;9.186;2023-05-10T14:31:19;1.95;;;0.75;;
27566;SDS011;15006;48.584;9.186;2023-05-10T14:33:46;0.50;;;0.45;;
27566;SDS011;15006;48.584;9.186;2023-05-10T14:36:12;0.60;;;0.52;;
27566;SDS011;15006;48.584;9.186;2023-05-10T14:38:39;1.52;;;0.77;;
27566;SDS011;15006;48.584;9.186;2023-05-10T14:41:05;0.60;;;0.50;;
27566;SDS011;15006;48.584;9.186;2023-05-10T14:43:32;2.58;;;0.68;;
27566;SDS011;15006;48.584;9.186;2023-05-10T14:45:58;1.95;;;0.57;;
27566;SDS011;15006;48.584;9.186;2023-05-10T14:48:24;1.52;;;0.60;;
27566;SDS011;15006;48.584;9.186;2023-05-10T14:50:50;0.98;;;0.60;;
27566;SDS011;15006;48.584;9.186;2023-05-10T14:53:17;0.70;;;0.70;;
27566;SDS011;15006;48.584;9.186;2023-05-10T14:55:43;2.17;;;0.85;;
27566;SDS011;15006;48.584;9.186;2023-05-10T14:58:09;0.90;;;0.45;;
27566;SDS011;15006;48.584;9.186;2023-05-10T15:00:36;0.55;;;0.47;;
27566;SDS011;15006;48.584;9.186;2023-05-10T15:03:02;0.55;;;0.50;;
27566;SDS011;15006;48.584;9.186;2023-05-10T15:05:28;0.85;;;0.70;;
27566;SDS011;15006;48.584;9.186;2023-05-10T15:07:54;9.85;;;0.93;;
27566;SDS011;15006;48.584;9.186;2023-05-10T15:10:21;0.90;;;0.50;;
27566;SDS011;15006;48.584;9.186;2023-05-10T15:12:47;1.73;;;0.70;;
27566;SDS011;15006;48.584;9.186;2023-05-10T15:15:13;3.67;;;0.60;;
27566;SDS011;15006;48.584;9.186;2023-05-10T15:17:40;0.70;;;0.50;;